Date,TemperatureHighF,TemperatureAvgF,TemperatureLowF,DewpointHighF,DewpointAvgF,DewpointLowF,HumidityHigh,HumidityAvg,HumidityLow,PressureMaxIn,PressureMinIn,WindSpeedMaxMPH,WindSpeedAvgMPH,GustSpeedMaxMPH,PrecipitationSumIn
2013-2-1,17.9,13.1,6.9,13.6,8.3,1.4,92,81,70,30.30,29.90,19,6,19,0.00
2013-2-2,22.6,15.5,3.6,19.3,11.8,1.2,90,85,81,30.24,29.96,14,3,14,0.00
2013-2-3,21.1,11.2,-2.9,17.5,7.0,-5.4,91,84,67,30.04,29.87,23,3,23,0.00
2013-2-4,23.4,18.7,14.6,19.3,15.9,11.1,93,89,82,30.06,29.89,7,1,7,0.00
2013-2-5,27.5,19.2,0.8,26.1,16.1,-1.7,95,88,72,29.98,29.83,14,2,14,0.00
2013-2-6,33.7,22.5,6.4,23.7,16.2,4.2,93,78,55,30.31,29.98,13,1,14,0.01
2013-2-7,38.3,29.8,24.4,30.2,24.0,17.1,86,79,71,30.29,29.94,18,4,19,0.01
2013-2-8,28.0,22.4,13.6,20.8,16.8,11.2,92,79,68,30.36,30.14,23,3,23,0.00
2013-2-9,31.9,16.9,-1.8,20.6,12.3,-4.3,94,83,57,30.48,30.30,12,1,12,0.01
2013-2-10,39.9,30.5,20.2,37.5,26.3,18.7,94,85,65,30.31,29.68,19,4,19,0.31
2013-2-11,44.9,36.9,30.9,43.8,31.9,25.9,97,82,71,29.86,29.55,33,9,33,0.39
2013-2-12,31.5,29.8,26.8,27.0,24.4,21.3,87,80,76,30.05,29.86,19,6,20,0.00
2013-2-13,40.6,30.6,26.1,27.2,25.1,21.8,92,81,58,29.94,29.74,10,1,10,0.00
2013-2-14,39.2,33.8,28.4,35.3,30.7,26.4,95,88,79,29.84,29.67,28,4,29,0.00
2013-2-15,33.3,26.7,20.0,29.5,18.2,13.1,86,70,56,30.13,29.84,19,5,20,0.00
2013-2-16,24.2,19.0,13.9,19.9,14.4,7.7,92,82,56,30.11,29.99,15,2,16,0.00
2013-2-17,24.1,15.0,8.1,13.5,7.7,4.0,91,74,49,30.23,30.07,18,2,18,0.00
2013-2-18,45.7,31.8,11.9,38.8,22.7,9.2,89,69,56,30.23,29.60,17,3,21,0.00
2013-2-19,44.5,27.7,17.2,40.9,23.7,11.0,94,85,72,29.93,29.40,29,9,31,0.15
2013-2-20,21.5,18.7,14.9,16.6,12.0,8.1,83,75,65,30.26,29.93,23,7,23,0.00
2013-2-21,25.1,21.5,20.0,17.6,16.0,14.7,87,79,68,30.41,30.26,18,4,18,0.00
2013-2-22,33.0,26.6,21.2,32.3,24.8,17.6,98,93,86,30.27,29.90,23,6,24,0.00
2013-2-23,34.4,29.4,23.2,30.2,23.1,19.2,92,77,62,29.92,29.86,19,4,19,0.00
2013-2-24,36.5,27.8,21.2,26.5,22.8,18.4,93,82,63,30.16,29.90,17,3,17,0.00
2013-2-25,42.1,29.0,14.1,28.3,22.7,12.5,96,79,55,30.24,30.10,10,2,10,0.00
2013-2-26,34.4,31.3,26.9,32.3,27.2,21.5,98,85,72,30.12,29.49,27,8,27,0.22
2013-2-27,32.9,32.8,32.7,32.5,32.3,32.1,99,98,98,29.49,29.44,14,3,14,0.22